sensor_id;sensor_type;location;lat;lon;timestamp;pressure;altitude;pressure_sealevel;temperature;humidity
68193;BME280;55012;47.562;18.414;2023-04-04T00:01:11;99689.38;;;-0.93;100.00
68193;BME280;55012;47.562;18.414;2023-04-04T00:03:37;99677.97;;;-0.94;100.00
68193;BME280;55012;47.562;18.414;2023-04-04T00:06:03;99668.94;;;-0.93;100.00
68193;BME280;55012;47.562;18.414;2023-04-04T00:08:28;99663.88;;;-0.94;100.00
68193;BME280;55012;47.562;18.414;2023-04-04T00:10:58;99671.84;;;-0.94;100.00
68193;BME280;55012;47.562;18.414;2023-04-04T00:13:25;99663.88;;;-0.99;100.00
68193;BME280;55012;47.562;18.414;2023-04-04T00:15:53;99663.31;;;-1.01;100.00
68193;BME280;55012;47.562;18.414;2023-04-04T00:18:19;99656.16;;;-1.06;100.00
68193;BME280;55012;47.562;18.414;2023-04-04T00:20:44;99658.00;;;-1.06;100.00
68193;BME280;55012;47.562;18.414;2023-04-04T00:23:10;99655.34;;;-1.06;100.00
68193;BME280;55012;47.562;18.414;2023-04-04T00:25:36;99647.38;;;-1.06;100.00
68193;BME280;55012;47.562;18.414;2023-04-04T00:28:02;99640.44;;;-1.13;100.00
68193;BME280;55012;47.562;18.414;2023-04-04T00:30:28;99623.69;;;-1.18;100.00
68193;BME280;55012;47.562;18.414;2023-04-04T00:32:54;99628.44;;;-1.20;100.00
68193;BME280;55012;47.562;18.414;2023-04-04T00:35:20;99616.50;;;-1.23;100.00
68193;BME280;55012;47.562;18.414;2023-04-04T00:37:46;99613.28;;;-1.25;100.00
68193;BME280;55012;47.562;18.414;2023-04-04T00:40:11;99607.97;;;-1.30;100.00
68193;BME280;55012;47.562;18.414;2023-04-04T00:42:37;99601.56;;;-1.34;100.00
68193;BME280;55012;47.562;18.414;2023-04-04T00:45:05;99593.88;;;-1.35;100.00
68193;BME280;55012;47.562;18.414;2023-04-04T00:47:31;99575.28;;;-1.40;100.00
68193;BME280;55012;47.562;18.414;2023-04-04T00:49:57;99561.75;;;-1.39;100.00
68193;BME280;55012;47.562;18.414;2023-04-04T00:52:22;99551.13;;;-1.39;100.00
68193;BME280;55012;47.562;18.414;2023-04-04T00:54:48;99532.56;;;-1.39;100.00
68193;BME280;55012;47.562;18.414;2023-04-04T00:57:14;99521.94;;;-1.39;100.00
68193;BME280;55012;47.562;18.414;2023-04-04T00:59:41;99510.78;;;-1.41;100.00
68193;BME280;55012;47.562;18.414;2023-04-04T01:02:07;99485.88;;;-1.40;100.00
68193;BME280;55012;47.562;18.414;2023-04-04T01:04:33;99468.09;;;-1.39;100.00
68193;BME280;55012;47.562;18.414;2023-04-04T01:06:59;99437.84;;;-1.38;100.00
68193;BME280;55012;47.562;18.414;2023-04-04T01:09:25;99414.47;;;-1.42;100.00
68193;BME280;55012;47.562;18.414;2023-04-04T01:11:52;99387.41;;;-1.44;100.00
68193;BME280;55012;47.562;18.414;2023-04-04T01:14:17;99361.41;;;-1.47;100.00
68193;BME280;55012;47.562;18.414;2023-04-04T01:16:43;99330.06;;;-1.50;100.00
68193;BME280;55012;47.562;18.414;2023-04-04T01:19:15;99297.97;;;-1.53;100.00
68193;BME280;55012;47.562;18.414;2023-04-04T01:21:42;99263.47;;;-1.58;100.00
68193;BME280;55012;47.562;18.414;2023-04-04T01:24:09;99226.88;;;-1.61;100.00
68193;BME280;55012;47.562;18.414;2023-04-04T01:26:37;99186.56;;;-1.63;100.00
68193;BME280;55012;47.562;18.414;2023-04-04T01:29:03;99148.09;;;-1.66;100.00
68193;BME280;55012;47.562;18.414;2023-04-04T01:31:34;99103.28;;;-1.67;100.00
68193;BME280;55012;47.562;18.414;2023-04-04T01:34:14;99076.25;;;-1.70;100.00
68193;BME280;55012;47.562;18.414;2023-04-04T01:36:52;99044.69;;;-1.71;100.00
68193;BME280;55012;47.562;18.414;2023-04-04T01:41:53;98998.81;;;-1.72;100.00
68193;BME280;55012;47.562;18.414;2023-04-04T01:44:20;98967.81;;;-1.76;100.00
68193;BME280;55012;47.562;18.414;2023-04-04T01:46:52;98933.09;;;-1.80;100.00
68193;BME280;55012;47.562;18.414;2023-04-04T01:49:18;98892.25;;;-1.84;100.00
68193;BME280;55012;47.562;18.414;2023-04-04T01:51:43;98861.00;;;-1.87;100.00
68193;BME280;55012;47.562;18.414;2023-04-04T01:54:09;98832.41;;;-1.90;100.00
68193;BME280;55012;47.562;18.414;2023-04-04T01:56:34;98813.28;;;-1.92;100.00
68193;BME280;55012;47.562;18.414;2023-04-04T01:59:00;98788.13;;;-1.94;100.00
68193;BME280;55012;47.562;18.414;2023-04-04T02:01:25;98757.41;;;-1.95;100.00
68193;BME280;55012;47.562;18.414;2023-04-04T02:03:51;98734.34;;;-2.00;100.00
68193;BME280;55012;47.562;18.414;2023-04-04T02:06:16;98710.00;;;-2.07;100.00
68193;BME280;55012;47.562;18.414;2023-04-04T02:08:42;98704.47;;;-2.11;100.00
68193;BME280;55012;47.562;18.414;2023-04-04T02:11:07;98688.59;;;-2.16;100.00
68193;BME280;55012;47.562;18.414;2023-04-04T02:13:33;98684.94;;;-2.20;100.00
68193;BME280;55012;47.562;18.414;2023-04-04T02:15:58;98670.38;;;-2.22;100.00
68193;BME280;55012;47.562;18.414;2023-04-04T02:18:23;98660.03;;;-2.24;100.00
68193;BME280;55012;47.562;18.414;2023-04-04T02:20:56;98646.00;;;-2.24;100.00
68193;BME280;55012;47.562;18.414;2023-04-04T02:23:21;98634.88;;;-2.21;100.00
68193;BME280;55012;47.562;18.414;2023-04-04T02:25:49;98617.41;;;-2.22;100.00
68193;BME280;55012;47.562;18.414;2023-04-04T02:28:15;98603.88;;;-2.21;100.00
68193;BME280;55012;47.562;18.414;2023-04-04T02:30:40;98590.13;;;-2.23;100.00
68193;BME280;55012;47.562;18.414;2023-04-04T02:33:06;98590.91;;;-2.22;100.00
68193;BME280;55012;47.562;18.414;2023-04-04T02:35:32;98574.47;;;-2.24;100.00
68193;BME280;55012;47.562;18.414;2023-04-04T02:37:57;98558.06;;;-2.27;100.00
68193;BME280;55012;47.562;18.414;2023-04-04T02:40:23;98549.91;;;-2.30;100.00
68193;BME280;55012;47.562;18.414;2023-04-04T02:42:48;98532.19;;;-2.35;100.00
68193;BME280;55012;47.562;18.414;2023-04-04T02:45:14;98516.53;;;-2.31;100.00
68193;BME280;55012;47.562;18.414;2023-04-04T02:47:40;98501.94;;;-2.29;100.00
68193;BME280;55012;47.562;18.414;2023-04-04T02:50:08;98487.34;;;-2.26;100.00
68193;BME280;55012;47.562;18.414;2023-04-04T02:52:33;98484.97;;;-2.28;100.00
68193;BME280;55012;47.562;18.414;2023-04-04T02:54:59;98473.88;;;-2.30;100.00
68193;BME280;55012;47.562;18.414;2023-04-04T02:57:24;98463.50;;;-2.26;100.00
68193;BME280;55012;47.562;18.414;2023-04-04T02:59:49;98472.50;;;-2.27;100.00
68193;BME280;55012;47.562;18.414;2023-04-04T03:02:15;98464.06;;;-2.29;100.00
68193;BME280;55012;47.562;18.414;2023-04-04T03:04:40;98467.25;;;-2.32;100.00
68193;BME280;55012;47.562;18.414;2023-04-04T03:07:06;98464.59;;;-2.32;100.00
68193;BME280;55012;47.562;18.414;2023-04-04T03:09:31;98454.75;;;-2.27;100.00
68193;BME280;55012;47.562;18.414;2023-04-04T03:11:57;98439.16;;;-2.28;100.00
68193;BME280;55012;47.562;18.414;2023-04-04T03:14:22;98443.09;;;-2.26;100.00
68193;BME280;55012;47.562;18.414;2023-04-04T03:16:51;98440.69;;;-2.22;100.00
68193;BME280;55012;47.562;18.414;2023-04-04T03:19:17;98436.72;;;-2.24;100.00
68193;BME280;55012;47.562;18.414;2023-04-04T03:21:42;98442.81;;;-2.24;100.00
68193;BME280;55012;47.562;18.414;2023-04-04T03:24:07;98442.31;;;-2.26;100.00
68193;BME280;55012;47.562;18.414;2023-04-04T03:26:33;98439.66;;;-2.26;100.00
68193;BME280;55012;47.562;18.414;2023-04-04T03:28:59;98432.50;;;-2.26;100.00
68193;BME280;55012;47.562;18.414;2023-04-04T03:31:24;98434.59;;;-2.22;100.00
68193;BME280;55012;47.562;18.414;2023-04-04T03:33:50;98428.22;;;-2.21;100.00
68193;BME280;55012;47.562;18.414;2023-04-04T03:36:15;98423.72;;;-2.21;100.00
68193;BME280;55012;47.562;18.414;2023-04-04T03:38:41;98428.50;;;-2.23;100.00
68193;BME280;55012;47.562;18.414;2023-04-04T03:41:06;98432.22;;;-2.24;100.00
68193;BME280;55012;47.562;18.414;2023-04-04T03:43:32;98428.56;;;-2.28;100.00
68193;BME280;55012;47.562;18.414;2023-04-04T03:46:01;98436.53;;;-2.33;100.00
68193;BME280;55012;47.562;18.414;2023-04-04T03:48:29;98432.88;;;-2.37;100.00
68193;BME280;55012;47.562;18.414;2023-04-04T03:50:57;98425.53;;;-2.45;100.00
68193;BME280;55012;47.562;18.414;2023-04-04T03:53:26;98437.72;;;-2.44;100.00
68193;BME280;55012;47.562;18.414;2023-04-04T03:55:55;98435.84;;;-2.44;100.00
68193;BME280;55012;47.562;18.414;2023-04-04T03:58:21;98434.78;;;-2.43;100.00
68193;BME280;55012;47.562;18.414;2023-04-04T04:00:47;98438.22;;;-2.42;100.00
68193;BME280;55012;47.562;18.414;2023-04-04T04:03:12;98443.50;;;-2.42;100.00
68193;BME280;55012;47.562;18.414;2023-04-04T04:05:38;98475.56;;;-2.44;100.00
68193;BME280;55012;47.562;18.414;2023-04-04T04:08:04;98466.06;;;-2.45;100.00
68193;BME280;55012;47.562;18.414;2023-04-04T04:10:29;98471.63;;;-2.46;100.00
68193;BME280;55012;47.562;18.414;2023-04-04T04:12:55;98465.03;;;-2.49;100.00
68193;BME280;55012;47.562;18.414;2023-04-04T04:15:21;98457.59;;;-2.47;100.00
68193;BME280;55012;47.562;18.414;2023-04-04T04:17:46;98447.28;;;-2.48;100.00
68193;BME280;55012;47.562;18.414;2023-04-04T04:20:12;98443.59;;;-2.47;100.00
68193;BME280;55012;47.562;18.414;2023-04-04T04:22:38;98436.44;;;-2.47;100.00
68193;BME280;55012;47.562;18.414;2023-04-04T04:25:09;98440.88;;;-2.42;100.00
68193;BME280;55012;47.562;18.414;2023-04-04T04:27:35;98432.09;;;-2.38;100.00
68193;BME280;55012;47.562;18.414;2023-04-04T04:30:00;98441.91;;;-2.38;100.00
68193;BME280;55012;47.562;18.414;2023-04-04T04:32:26;98467.31;;;-2.37;100.00
68193;BME280;55012;47.562;18.414;2023-04-04T04:34:51;98486.38;;;-2.35;100.00
68193;BME280;55012;47.562;18.414;2023-04-04T04:37:17;98498.03;;;-2.36;100.00
68193;BME280;55012;47.562;18.414;2023-04-04T04:39:42;98507.56;;;-2.35;100.00
68193;BME280;55012;47.562;18.414;2023-04-04T04:42:08;98587.00;;;-2.35;100.00
68193;BME280;55012;47.562;18.414;2023-04-04T04:44:33;98607.13;;;-2.34;100.00
68193;BME280;55012;47.562;18.414;2023-04-04T04:46:58;98614.56;;;-2.31;100.00
68193;BME280;55012;47.562;18.414;2023-04-04T04:49:24;98630.41;;;-2.26;100.00
68193;BME280;55012;47.562;18.414;2023-04-04T04:51:49;98639.91;;;-2.20;100.00
68193;BME280;55012;47.562;18.414;2023-04-04T04:54:15;98643.03;;;-2.13;100.00
68193;BME280;55012;47.562;18.414;2023-04-04T04:56:40;98637.94;;;-2.04;100.00
68193;BME280;55012;47.562;18.414;2023-04-04T04:59:06;98627.56;;;-2.01;100.00
68193;BME280;55012;47.562;18.414;2023-04-04T05:01:33;98589.34;;;-1.94;100.00
68193;BME280;55012;47.562;18.414;2023-04-04T05:03:58;98589.03;;;-1.88;100.00
68193;BME280;55012;47.562;18.414;2023-04-04T05:06:24;98598.78;;;-1.83;100.00
68193;BME280;55012;47.562;18.414;2023-04-04T05:08:49;98595.03;;;-1.77;100.00
68193;BME280;55012;47.562;18.414;2023-04-04T05:11:15;98596.28;;;-1.70;100.00
68193;BME280;55012;47.562;18.414;2023-04-04T05:13:40;98590.66;;;-1.63;100.00
68193;BME280;55012;47.562;18.414;2023-04-04T05:16:06;98586.63;;;-1.60;100.00
68193;BME280;55012;47.562;18.414;2023-04-04T05:18:31;98584.84;;;-1.65;100.00
68193;BME280;55012;47.562;18.414;2023-04-04T05:20:56;98575.09;;;-1.75;100.00
68193;BME280;55012;47.562;18.414;2023-04-04T05:23:22;98557.13;;;-1.78;100.00
68193;BME280;55012;47.562;18.414;2023-04-04T05:25:51;98549.91;;;-1.72;100.00
68193;BME280;55012;47.562;18.414;2023-04-04T05:28:18;98560.44;;;-1.67;100.00
68193;BME280;55012;47.562;18.414;2023-04-04T05:30:44;98536.66;;;-1.72;100.00
68193;BME280;55012;47.562;18.414;2023-04-04T05:33:09;98520.28;;;-1.79;100.00
68193;BME280;55012;47.562;18.414;2023-04-04T05:35:35;98537.47;;;-1.77;100.00
68193;BME280;55012;47.562;18.414;2023-04-04T05:38:01;98521.34;;;-1.80;100.00
68193;BME280;55012;47.562;18.414;2023-04-04T05:40:27;98473.09;;;-1.82;100.00
68193;BME280;55012;47.562;18.414;2023-04-04T05:42:59;98442.63;;;-1.80;100.00
68193;BME280;55012;47.562;18.414;2023-04-04T05:45:26;98426.91;;;-1.76;100.00
68193;BME280;55012;47.562;18.414;2023-04-04T05:47:51;98413.38;;;-1.75;100.00
68193;BME280;55012;47.562;18.414;2023-04-04T05:50:17;98396.41;;;-1.74;100.00
68193;BME280;55012;47.562;18.414;2023-04-04T05:52:43;98450.88;;;-1.62;100.00
68193;BME280;55012;47.562;18.414;2023-04-04T05:55:10;98441.81;;;-1.56;100.00
68193;BME280;55012;47.562;18.414;2023-04-04T05:57:36;98419.72;;;-1.52;100.00
68193;BME280;55012;47.562;18.414;2023-04-04T06:00:03;98415.69;;;-1.49;100.00
68193;BME280;55012;47.562;18.414;2023-04-04T06:02:30;98391.56;;;-1.48;100.00
68193;BME280;55012;47.562;18.414;2023-04-04T06:04:56;98390.84;;;-1.53;100.00
68193;BME280;55012;47.562;18.414;2023-04-04T06:07:21;98372.25;;;-1.53;100.00
68193;BME280;55012;47.562;18.414;2023-04-04T06:09:47;98367.94;;;-1.49;100.00
68193;BME280;55012;47.562;18.414;2023-04-04T06:12:12;98360.44;;;-1.42;100.00
68193;BME280;55012;47.562;18.414;2023-04-04T06:14:38;98355.56;;;-1.35;100.00
68193;BME280;55012;47.562;18.414;2023-04-04T06:17:03;98354.41;;;-1.29;100.00
68193;BME280;55012;47.562;18.414;2023-04-04T06:19:29;98340.00;;;-1.23;100.00
68193;BME280;55012;47.562;18.414;2023-04-04T06:21:55;98355.53;;;-1.16;100.00
68193;BME280;55012;47.562;18.414;2023-04-04T06:24:20;98345.13;;;-1.13;100.00
68193;BME280;55012;47.562;18.414;2023-04-04T06:26:46;98355.59;;;-1.02;100.00
68193;BME280;55012;47.562;18.414;2023-04-04T06:29:16;98353.84;;;-0.93;100.00
68193;BME280;55012;47.562;18.414;2023-04-04T06:31:42;98359.78;;;-0.82;100.00
68193;BME280;55012;47.562;18.414;2023-04-04T06:34:07;98362.56;;;-0.74;100.00
68193;BME280;55012;47.562;18.414;2023-04-04T06:36:33;98397.47;;;-0.67;100.00
68193;BME280;55012;47.562;18.414;2023-04-04T06:38:58;98407.44;;;-0.59;100.00
68193;BME280;55012;47.562;18.414;2023-04-04T06:41:24;98454.88;;;-0.52;100.00
68193;BME280;55012;47.562;18.414;2023-04-04T06:43:50;98502.91;;;-0.48;100.00
68193;BME280;55012;47.562;18.414;2023-04-04T06:46:16;98542.66;;;-0.43;100.00
68193;BME280;55012;47.562;18.414;2023-04-04T06:48:41;98572.31;;;-0.36;100.00
68193;BME280;55012;47.562;18.414;2023-04-04T06:51:07;98602.78;;;-0.29;100.00
68193;BME280;55012;47.562;18.414;2023-04-04T06:53:33;98673.94;;;-0.25;100.00
68193;BME280;55012;47.562;18.414;2023-04-04T06:55:59;98721.72;;;-0.20;100.00
68193;BME280;55012;47.562;18.414;2023-04-04T06:58:25;98714.50;;;-0.15;100.00
68193;BME280;55012;47.562;18.414;2023-04-04T07:00:50;98767.03;;;-0.07;100.00
68193;BME280;55012;47.562;18.414;2023-04-04T07:03:16;98785.53;;;-0.02;100.00
68193;BME280;55012;47.562;18.414;2023-04-04T07:05:42;98818.69;;;0.06;100.00
68193;BME280;55012;47.562;18.414;2023-04-04T07:08:08;98840.69;;;0.12;100.00
68193;BME280;55012;47.562;18.414;2023-04-04T07:10:33;98849.63;;;0.21;100.00
68193;BME280;55012;47.562;18.414;2023-04-04T07:12:59;98891.06;;;0.27;100.00
68193;BME280;55012;47.562;18.414;2023-04-04T07:15:25;98939.38;;;0.34;100.00
68193;BME280;55012;47.562;18.414;2023-04-04T07:17:50;98967.28;;;0.37;100.00
68193;BME280;55012;47.562;18.414;2023-04-04T07:20:16;99007.56;;;0.49;100.00
68193;BME280;55012;47.562;18.414;2023-04-04T07:22:41;99030.41;;;0.55;100.00
68193;BME280;55012;47.562;18.414;2023-04-04T07:25:08;99077.47;;;0.60;100.00
68193;BME280;55012;47.562;18.414;2023-04-04T07:27:34;99135.69;;;0.66;100.00
68193;BME280;55012;47.562;18.414;2023-04-04T07:30:00;99161.97;;;0.73;100.00
68193;BME280;55012;47.562;18.414;2023-04-04T07:32:25;99235.41;;;0.79;100.00
68193;BME280;55012;47.562;18.414;2023-04-04T07:34:51;99270.50;;;0.86;100.00
68193;BME280;55012;47.562;18.414;2023-04-04T07:37:16;99300.28;;;0.93;100.00
68193;BME280;55012;47.562;18.414;2023-04-04T07:39:42;99338.25;;;1.04;100.00
68193;BME280;55012;47.562;18.414;2023-04-04T07:42:08;99356.31;;;1.12;100.00
68193;BME280;55012;47.562;18.414;2023-04-04T07:44:34;99360.47;;;1.23;100.00
68193;BME280;55012;47.562;18.414;2023-04-04T07:46:59;99377.69;;;1.36;100.00
68193;BME280;55012;47.562;18.414;2023-04-04T07:49:25;99391.19;;;1.50;100.00
68193;BME280;55012;47.562;18.414;2023-04-04T07:51:51;99431.09;;;1.55;100.00
68193;BME280;55012;47.562;18.414;2023-04-04T07:54:16;99475.59;;;1.59;100.00
68193;BME280;55012;47.562;18.414;2023-04-04T07:56:41;99504.06;;;1.64;100.00
68193;BME280;55012;47.562;18.414;2023-04-04T07:59:07;99529.91;;;1.68;100.00
68193;BME280;55012;47.562;18.414;2023-04-04T08:01:32;99543.78;;;1.71;100.00
68193;BME280;55012;47.562;18.414;2023-04-04T08:03:58;99561.56;;;1.80;100.00
68193;BME280;55012;47.562;18.414;2023-04-04T08:06:23;99579.63;;;1.88;100.00
68193;BME280;55012;47.562;18.414;2023-04-04T08:08:49;99602.81;;;1.93;100.00
68193;BME280;55012;47.562;18.414;2023-04-04T08:11:16;99618.53;;;2.00;100.00
68193;BME280;55012;47.562;18.414;2023-04-04T08:13:41;99616.06;;;2.03;100.00
68193;BME280;55012;47.562;18.414;2023-04-04T08:16:07;99620.03;;;2.11;100.00
68193;BME280;55012;47.562;18.414;2023-04-04T08:18:32;99645.88;;;2.15;100.00
68193;BME280;55012;47.562;18.414;2023-04-04T08:20:58;99642.06;;;2.27;100.00
68193;BME280;55012;47.562;18.414;2023-04-04T08:23:23;99635.00;;;2.41;100.00
68193;BME280;55012;47.562;18.414;2023-04-04T08:25:49;99644.16;;;2.59;100.00
68193;BME280;55012;47.562;18.414;2023-04-04T08:28:15;99644.81;;;2.74;100.00
68193;BME280;55012;47.562;18.414;2023-04-04T08:30:41;99663.69;;;2.83;100.00
68193;BME280;55012;47.562;18.414;2023-04-04T08:33:06;99685.53;;;2.90;100.00
68193;BME280;55012;47.562;18.414;2023-04-04T08:35:33;99710.09;;;2.92;100.00
68193;BME280;55012;47.562;18.414;2023-04-04T08:37:58;99729.03;;;2.96;100.00
68193;BME280;55012;47.562;18.414;2023-04-04T08:40:26;99733.13;;;3.12;100.00
68193;BME280;55012;47.562;18.414;2023-04-04T08:42:55;99735.81;;;3.36;100.00
68193;BME280;55012;47.562;18.414;2023-04-04T08:45:23;99761.31;;;3.52;100.00
68193;BME280;55012;47.562;18.414;2023-04-04T08:47:50;99743.91;;;3.55;100.00
68193;BME280;55012;47.562;18.414;2023-04-04T08:50:18;99761.09;;;3.73;100.00
68193;BME280;55012;47.562;18.414;2023-04-04T08:52:44;99759.63;;;3.80;100.00
68193;BME280;55012;47.562;18.414;2023-04-04T08:55:11;99754.22;;;3.85;100.00
68193;BME280;55012;47.562;18.414;2023-04-04T08:57:36;99775.34;;;3.87;100.00
68193;BME280;55012;47.562;18.414;2023-04-04T09:00:02;99742.72;;;3.66;100.00
68193;BME280;55012;47.562;18.414;2023-04-04T09:03:13;99759.56;;;3.66;100.00
68193;BME280;55012;47.562;18.414;2023-04-04T09:05:42;99725.72;;;3.76;100.00
68193;BME280;55012;47.562;18.414;2023-04-04T09:08:10;99717.56;;;3.86;100.00
68193;BME280;55012;47.562;18.414;2023-04-04T09:10:37;99716.75;;;3.85;100.00
68193;BME280;55012;47.562;18.414;2023-04-04T09:13:03;99715.13;;;3.89;100.00
68193;BME280;55012;47.562;18.414;2023-04-04T09:15:28;99723.41;;;3.88;100.00
68193;BME280;55012;47.562;18.414;2023-04-04T09:17:55;99702.16;;;3.97;100.00
68193;BME280;55012;47.562;18.414;2023-04-04T09:20:40;99692.53;;;3.77;100.00
68193;BME280;55012;47.562;18.414;2023-04-04T09:23:11;99702.44;;;3.76;100.00
68193;BME280;55012;47.562;18.414;2023-04-04T09:25:43;99698.72;;;3.72;100.00
68193;BME280;55012;47.562;18.414;2023-04-04T09:28:09;99702.00;;;3.69;100.00
68193;BME280;55012;47.562;18.414;2023-04-04T09:30:35;99665.91;;;3.66;100.00
68193;BME280;55012;47.562;18.414;2023-04-04T09:33:03;99699.66;;;3.62;100.00
68193;BME280;55012;47.562;18.414;2023-04-04T09:35:32;99667.69;;;3.52;100.00
68193;BME280;55012;47.562;18.414;2023-04-04T09:37:58;99664.53;;;3.50;100.00
68193;BME280;55012;47.562;18.414;2023-04-04T09:40:24;99672.47;;;3.55;100.00
68193;BME280;55012;47.562;18.414;2023-04-04T09:42:53;99630.19;;;3.57;100.00
68193;BME280;55012;47.562;18.414;2023-04-04T09:45:22;99660.84;;;3.65;100.00
68193;BME280;55012;47.562;18.414;2023-04-04T09:47:50;99627.66;;;3.66;100.00
68193;BME280;55012;47.562;18.414;2023-04-04T09:50:23;99616.31;;;3.74;100.00
68193;BME280;55012;47.562;18.414;2023-04-04T09:52:50;99616.22;;;3.79;100.00
68193;BME280;55012;47.562;18.414;2023-04-04T09:55:16;99605.88;;;3.91;100.00
68193;BME280;55012;47.562;18.414;2023-04-04T09:57:43;99599.38;;;3.98;100.00
68193;BME280;55012;47.562;18.414;2023-04-04T10:00:11;99624.75;;;4.00;100.00
68193;BME280;55012;47.562;18.414;2023-04-04T10:02:38;99565.94;;;3.95;100.00
68193;BME280;55012;47.562;18.414;2023-04-04T10:05:08;99572.59;;;3.98;100.00
68193;BME280;55012;47.562;18.414;2023-04-04T10:07:37;99559.50;;;3.96;100.00
68193;BME280;55012;47.562;18.414;2023-04-04T10:10:07;99526.81;;;3.99;100.00
68193;BME280;55012;47.562;18.414;2023-04-04T10:12:36;99560.50;;;4.00;100.00
68193;BME280;55012;47.562;18.414;2023-04-04T10:15:02;99527.91;;;3.98;100.00
68193;BME280;55012;47.562;18.414;2023-04-04T10:17:38;99531.38;;;3.99;100.00
68193;BME280;55012;47.562;18.414;2023-04-04T10:20:05;99489.03;;;4.01;100.00
68193;BME280;55012;47.562;18.414;2023-04-04T10:22:32;99504.19;;;4.05;100.00
68193;BME280;55012;47.562;18.414;2023-04-04T10:24:58;99522.13;;;4.05;100.00
68193;BME280;55012;47.562;18.414;2023-04-04T10:27:24;99494.78;;;4.08;100.00
68193;BME280;55012;47.562;18.414;2023-04-04T10:29:50;99485.66;;;4.09;100.00
68193;BME280;55012;47.562;18.414;2023-04-04T10:32:22;99477.66;;;4.22;100.00
68193;BME280;55012;47.562;18.414;2023-04-04T10:35:01;99482.13;;;4.27;100.00
68193;BME280;55012;47.562;18.414;2023-04-04T10:37:31;99467.66;;;4.42;100.00
68193;BME280;55012;47.562;18.414;2023-04-04T10:42:43;99479.25;;;4.51;100.00
68193;BME280;55012;47.562;18.414;2023-04-04T10:45:09;99440.75;;;4.47;100.00
68193;BME280;55012;47.562;18.414;2023-04-04T10:47:36;99439.94;;;4.46;100.00
68193;BME280;55012;47.562;18.414;2023-04-04T10:50:03;99439.38;;;4.49;100.00
68193;BME280;55012;47.562;18.414;2023-04-04T10:52:32;99422.38;;;4.68;100.00
68193;BME280;55012;47.562;18.414;2023-04-04T10:55:00;99423.72;;;4.79;100.00
68193;BME280;55012;47.562;18.414;2023-04-04T10:57:28;99427.69;;;4.82;100.00
68193;BME280;55012;47.562;18.414;2023-04-04T11:07:50;99423.72;;;4.79;100.00
68193;BME280;55012;47.562;18.414;2023-04-04T11:12:52;99395.47;;;4.95;100.00
68193;BME280;55012;47.562;18.414;2023-04-04T11:15:22;99396.13;;;5.15;100.00
68193;BME280;55012;47.562;18.414;2023-04-04T11:17:57;99395.56;;;5.26;100.00
68193;BME280;55012;47.562;18.414;2023-04-04T11:20:27;99368.88;;;5.21;100.00
68193;BME280;55012;47.562;18.414;2023-04-04T11:27:56;99354.69;;;5.29;100.00
68193;BME280;55012;47.562;18.414;2023-04-04T11:30:26;99369.63;;;5.44;100.00
68193;BME280;55012;47.562;18.414;2023-04-04T11:32:56;99367.38;;;5.69;100.00
68193;BME280;55012;47.562;18.414;2023-04-04T11:35:22;99363.28;;;6.02;100.00
68193;BME280;55012;47.562;18.414;2023-04-04T11:40:16;99368.13;;;6.40;100.00
68193;BME280;55012;47.562;18.414;2023-04-04T11:42:42;99364.81;;;6.43;100.00
68193;BME280;55012;47.562;18.414;2023-04-04T11:45:08;99374.97;;;6.55;100.00
68193;BME280;55012;47.562;18.414;2023-04-04T11:47:35;99377.16;;;6.53;100.00
68193;BME280;55012;47.562;18.414;2023-04-04T11:50:06;99396.56;;;6.41;100.00
68193;BME280;55012;47.562;18.414;2023-04-04T11:52:33;99386.47;;;6.46;100.00
68193;BME280;55012;47.562;18.414;2023-04-04T11:54:59;99370.47;;;6.33;100.00
68193;BME280;55012;47.562;18.414;2023-04-04T11:57:25;99367.78;;;6.33;100.00
68193;BME280;55012;47.562;18.414;2023-04-04T11:59:51;99378.84;;;6.31;100.00
68193;BME280;55012;47.562;18.414;2023-04-04T12:02:23;99377.41;;;6.25;100.00
68193;BME280;55012;47.562;18.414;2023-04-04T12:04:51;99369.19;;;6.22;100.00
68193;BME280;55012;47.562;18.414;2023-04-04T12:07:17;99354.97;;;6.12;100.00
68193;BME280;55012;47.562;18.414;2023-04-04T12:09:43;99350.06;;;6.14;100.00
68193;BME280;55012;47.562;18.414;2023-04-04T12:12:13;99346.28;;;6.24;100.00
68193;BME280;55012;47.562;18.414;2023-04-04T12:14:40;99338.03;;;6.20;100.00
68193;BME280;55012;47.562;18.414;2023-04-04T12:17:06;99358.94;;;6.24;100.00
68193;BME280;55012;47.562;18.414;2023-04-04T12:19:35;99353.56;;;6.24;100.00
68193;BME280;55012;47.562;18.414;2023-04-04T12:22:02;99365.25;;;6.28;100.00
68193;BME280;55012;47.562;18.414;2023-04-04T12:24:28;99360.06;;;6.31;100.00
68193;BME280;55012;47.562;18.414;2023-04-04T12:26:54;99326.53;;;6.29;100.00
68193;BME280;55012;47.562;18.414;2023-04-04T12:29:21;99328.28;;;6.42;100.00
68193;BME280;55012;47.562;18.414;2023-04-04T12:31:48;99352.03;;;6.48;100.00
68193;BME280;55012;47.562;18.414;2023-04-04T12:34:20;99337.16;;;6.42;100.00
68193;BME280;55012;47.562;18.414;2023-04-04T12:36:55;99354.84;;;6.52;100.00
68193;BME280;55012;47.562;18.414;2023-04-04T12:39:24;99332.75;;;6.46;100.00
68193;BME280;55012;47.562;18.414;2023-04-04T12:41:59;99315.66;;;6.51;100.00
68193;BME280;55012;47.562;18.414;2023-04-04T12:44:34;99325.78;;;6.45;100.00
68193;BME280;55012;47.562;18.414;2023-04-04T12:47:05;99320.88;;;6.39;100.00
68193;BME280;55012;47.562;18.414;2023-04-04T12:51:58;99326.56;;;6.46;100.00
68193;BME280;55012;47.562;18.414;2023-04-04T12:54:34;99314.53;;;6.35;100.00
68193;BME280;55012;47.562;18.414;2023-04-04T12:57:03;99314.06;;;6.50;100.00
68193;BME280;55012;47.562;18.414;2023-04-04T12:59:34;99320.88;;;6.73;100.00
68193;BME280;55012;47.562;18.414;2023-04-04T13:02:01;99315.34;;;6.79;100.00
68193;BME280;55012;47.562;18.414;2023-04-04T13:04:27;99293.34;;;6.76;100.00
68193;BME280;55012;47.562;18.414;2023-04-04T13:06:53;99320.41;;;6.71;100.00
68193;BME280;55012;47.562;18.414;2023-04-04T13:09:20;99287.66;;;6.69;100.00